sensor_id;sensor_type;location;lat;lon;timestamp;temperature;humidity
71942;DHT22;59997;53.300;-6.260;2023-04-12T00:02:13;3.52;82.82
71942;DHT22;59997;53.300;-6.260;2023-04-12T00:04:39;3.50;83.11
71942;DHT22;59997;53.300;-6.260;2023-04-12T00:07:04;3.46;83.37
71942;DHT22;59997;53.300;-6.260;2023-04-12T00:09:30;3.52;83.03
71942;DHT22;59997;53.300;-6.260;2023-04-12T00:11:59;3.44;83.22
71942;DHT22;59997;53.300;-6.260;2023-04-12T00:14:25;3.50;83.02
71942;DHT22;59997;53.300;-6.260;2023-04-12T00:16:51;3.41;83.29
71942;DHT22;59997;53.300;-6.260;2023-04-12T00:19:16;3.50;83.06
71942;DHT22;59997;53.300;-6.260;2023-04-12T00:21:43;3.51;82.62
71942;DHT22;59997;53.300;-6.260;2023-04-12T00:24:08;3.51;82.59
71942;DHT22;59997;53.300;-6.260;2023-04-12T00:26:34;3.56;82.44
71942;DHT22;59997;53.300;-6.260;2023-04-12T00:29:00;3.45;82.73
71942;DHT22;59997;53.300;-6.260;2023-04-12T00:31:25;3.35;82.89
71942;DHT22;59997;53.300;-6.260;2023-04-12T00:33:51;3.34;82.58
71942;DHT22;59997;53.300;-6.260;2023-04-12T00:36:16;3.30;82.70
71942;DHT22;59997;53.300;-6.260;2023-04-12T00:38:42;3.23;82.56
71942;DHT22;59997;53.300;-6.260;2023-04-12T00:41:10;3.23;81.94
71942;DHT22;59997;53.300;-6.260;2023-04-12T00:43:35;3.30;81.74
71942;DHT22;59997;53.300;-6.260;2023-04-12T00:46:01;3.23;81.91
71942;DHT22;59997;53.300;-6.260;2023-04-12T00:48:26;3.27;81.58
71942;DHT22;59997;53.300;-6.260;2023-04-12T00:50:53;3.23;81.28
71942;DHT22;59997;53.300;-6.260;2023-04-12T00:53:22;3.20;81.68
71942;DHT22;59997;53.300;-6.260;2023-04-12T00:55:49;3.26;81.66
71942;DHT22;59997;53.300;-6.260;2023-04-12T00:58:15;3.27;81.68
71942;DHT22;59997;53.300;-6.260;2023-04-12T01:00:41;3.21;81.86
71942;DHT22;59997;53.300;-6.260;2023-04-12T01:03:20;3.14;82.19
71942;DHT22;59997;53.300;-6.260;2023-04-12T01:08:52;2.96;82.56
71942;DHT22;59997;53.300;-6.260;2023-04-12T01:11:28;2.97;82.09
71942;DHT22;59997;53.300;-6.260;2023-04-12T01:14:06;3.11;81.39
71942;DHT22;59997;53.300;-6.260;2023-04-12T01:16:49;3.21;81.12
71942;DHT22;59997;53.300;-6.260;2023-04-12T01:27:45;3.07;81.94
71942;DHT22;59997;53.300;-6.260;2023-04-12T01:30:15;3.09;81.67
71942;DHT22;59997;53.300;-6.260;2023-04-12T01:32:43;3.13;81.46
71942;DHT22;59997;53.300;-6.260;2023-04-12T01:35:10;3.18;81.06
71942;DHT22;59997;53.300;-6.260;2023-04-12T01:37:37;3.11;80.98
71942;DHT22;59997;53.300;-6.260;2023-04-12T01:40:03;3.07;80.63
71942;DHT22;59997;53.300;-6.260;2023-04-12T01:42:33;3.13;80.09
71942;DHT22;59997;53.300;-6.260;2023-04-12T01:44:59;3.20;79.85
71942;DHT22;59997;53.300;-6.260;2023-04-12T01:47:24;3.24;79.17
71942;DHT22;59997;53.300;-6.260;2023-04-12T01:50:24;3.20;79.26
71942;DHT22;59997;53.300;-6.260;2023-04-12T01:53:02;3.18;79.51
71942;DHT22;59997;53.300;-6.260;2023-04-12T01:55:34;3.16;79.44
71942;DHT22;59997;53.300;-6.260;2023-04-12T01:58:01;3.16;79.42
71942;DHT22;59997;53.300;-6.260;2023-04-12T02:00:28;3.06;80.31
71942;DHT22;59997;53.300;-6.260;2023-04-12T02:02:55;3.02;80.87
71942;DHT22;59997;53.300;-6.260;2023-04-12T02:05:21;3.02;81.50
71942;DHT22;59997;53.300;-6.260;2023-04-12T02:07:47;3.00;82.02
71942;DHT22;59997;53.300;-6.260;2023-04-12T02:10:13;3.00;82.20
71942;DHT22;59997;53.300;-6.260;2023-04-12T02:12:40;3.02;82.21
71942;DHT22;59997;53.300;-6.260;2023-04-12T02:15:06;3.02;82.17
71942;DHT22;59997;53.300;-6.260;2023-04-12T02:17:32;3.06;82.29
71942;DHT22;59997;53.300;-6.260;2023-04-12T02:20:00;3.00;82.37
71942;DHT22;59997;53.300;-6.260;2023-04-12T02:22:26;3.02;81.99
71942;DHT22;59997;53.300;-6.260;2023-04-12T02:24:51;3.14;81.44
71942;DHT22;59997;53.300;-6.260;2023-04-12T02:27:17;3.03;82.03
71942;DHT22;59997;53.300;-6.260;2023-04-12T02:29:43;2.96;82.34
71942;DHT22;59997;53.300;-6.260;2023-04-12T02:32:09;3.03;82.09
71942;DHT22;59997;53.300;-6.260;2023-04-12T02:34:35;3.03;82.15
71942;DHT22;59997;53.300;-6.260;2023-04-12T02:37:02;3.02;82.51
71942;DHT22;59997;53.300;-6.260;2023-04-12T02:39:29;2.93;82.60
71942;DHT22;59997;53.300;-6.260;2023-04-12T02:41:56;2.97;81.97
71942;DHT22;59997;53.300;-6.260;2023-04-12T02:44:22;3.06;81.55
71942;DHT22;59997;53.300;-6.260;2023-04-12T02:46:47;3.02;81.58
71942;DHT22;59997;53.300;-6.260;2023-04-12T02:49:12;2.93;81.85
71942;DHT22;59997;53.300;-6.260;2023-04-12T02:51:38;2.96;81.67
71942;DHT22;59997;53.300;-6.260;2023-04-12T02:54:03;2.93;82.12
71942;DHT22;59997;53.300;-6.260;2023-04-12T02:56:30;2.86;82.22
71942;DHT22;59997;53.300;-6.260;2023-04-12T02:58:55;2.95;81.84
71942;DHT22;59997;53.300;-6.260;2023-04-12T03:01:21;2.89;82.00
71942;DHT22;59997;53.300;-6.260;2023-04-12T03:03:46;2.91;81.88
71942;DHT22;59997;53.300;-6.260;2023-04-12T03:06:12;2.86;81.75
71942;DHT22;59997;53.300;-6.260;2023-04-12T03:08:37;2.75;81.95
71942;DHT22;59997;53.300;-6.260;2023-04-12T03:11:03;2.82;81.36
71942;DHT22;59997;53.300;-6.260;2023-04-12T03:13:28;2.89;80.80
71942;DHT22;59997;53.300;-6.260;2023-04-12T03:15:56;3.02;79.88
71942;DHT22;59997;53.300;-6.260;2023-04-12T03:18:22;2.86;80.44
71942;DHT22;59997;53.300;-6.260;2023-04-12T03:20:48;2.92;79.81
71942;DHT22;59997;53.300;-6.260;2023-04-12T03:23:14;3.00;79.75
71942;DHT22;59997;53.300;-6.260;2023-04-12T03:25:40;2.96;80.24
71942;DHT22;59997;53.300;-6.260;2023-04-12T03:28:07;2.91;80.71
71942;DHT22;59997;53.300;-6.260;2023-04-12T03:30:32;2.81;80.97
71942;DHT22;59997;53.300;-6.260;2023-04-12T03:32:58;2.91;80.61
71942;DHT22;59997;53.300;-6.260;2023-04-12T03:35:23;3.02;79.81
71942;DHT22;59997;53.300;-6.260;2023-04-12T03:37:48;2.96;80.07
71942;DHT22;59997;53.300;-6.260;2023-04-12T03:40:14;2.96;80.16
71942;DHT22;59997;53.300;-6.260;2023-04-12T03:42:40;3.03;80.00
71942;DHT22;59997;53.300;-6.260;2023-04-12T03:45:06;3.02;80.34
71942;DHT22;59997;53.300;-6.260;2023-04-12T03:47:32;2.97;80.57
71942;DHT22;59997;53.300;-6.260;2023-04-12T03:50:03;3.10;79.84
71942;DHT22;59997;53.300;-6.260;2023-04-12T03:52:31;3.00;80.30
71942;DHT22;59997;53.300;-6.260;2023-04-12T03:54:57;2.95;80.43
71942;DHT22;59997;53.300;-6.260;2023-04-12T03:57:22;3.02;79.98
71942;DHT22;59997;53.300;-6.260;2023-04-12T03:59:48;3.07;79.22
71942;DHT22;59997;53.300;-6.260;2023-04-12T04:02:13;3.02;79.15
71942;DHT22;59997;53.300;-6.260;2023-04-12T04:04:38;2.93;79.51
71942;DHT22;59997;53.300;-6.260;2023-04-12T04:07:04;2.86;79.95
71942;DHT22;59997;53.300;-6.260;2023-04-12T04:09:31;2.81;79.84
71942;DHT22;59997;53.300;-6.260;2023-04-12T04:11:57;2.96;79.51
71942;DHT22;59997;53.300;-6.260;2023-04-12T04:14:22;2.91;79.80
71942;DHT22;59997;53.300;-6.260;2023-04-12T04:16:48;2.95;79.95
71942;DHT22;59997;53.300;-6.260;2023-04-12T04:19:13;3.03;79.47
71942;DHT22;59997;53.300;-6.260;2023-04-12T04:21:39;3.03;79.95
71942;DHT22;59997;53.300;-6.260;2023-04-12T04:24:04;3.03;79.38
71942;DHT22;59997;53.300;-6.260;2023-04-12T04:26:31;3.10;78.95
71942;DHT22;59997;53.300;-6.260;2023-04-12T04:28:58;3.06;79.24
71942;DHT22;59997;53.300;-6.260;2023-04-12T04:31:27;2.99;79.71
71942;DHT22;59997;53.300;-6.260;2023-04-12T04:33:59;3.02;79.54
71942;DHT22;59997;53.300;-6.260;2023-04-12T04:36:25;2.97;79.40
71942;DHT22;59997;53.300;-6.260;2023-04-12T04:38:51;2.99;79.44
71942;DHT22;59997;53.300;-6.260;2023-04-12T04:41:16;2.99;79.20
71942;DHT22;59997;53.300;-6.260;2023-04-12T04:43:47;3.02;79.26
71942;DHT22;59997;53.300;-6.260;2023-04-12T04:46:13;3.16;78.65
71942;DHT22;59997;53.300;-6.260;2023-04-12T04:48:39;3.24;77.78
71942;DHT22;59997;53.300;-6.260;2023-04-12T04:51:05;3.32;77.72
71942;DHT22;59997;53.300;-6.260;2023-04-12T04:53:31;3.30;77.61
71942;DHT22;59997;53.300;-6.260;2023-04-12T04:55:57;3.35;77.75
71942;DHT22;59997;53.300;-6.260;2023-04-12T04:58:23;3.48;76.48
71942;DHT22;59997;53.300;-6.260;2023-04-12T05:00:49;3.46;76.64
71942;DHT22;59997;53.300;-6.260;2023-04-12T05:03:15;3.51;76.10
71942;DHT22;59997;53.300;-6.260;2023-04-12T05:05:40;3.45;76.77
71942;DHT22;59997;53.300;-6.260;2023-04-12T05:08:06;3.46;76.77
71942;DHT22;59997;53.300;-6.260;2023-04-12T05:10:31;3.45;76.06
71942;DHT22;59997;53.300;-6.260;2023-04-12T05:12:57;3.45;76.98
71942;DHT22;59997;53.300;-6.260;2023-04-12T05:15:22;3.45;76.45
71942;DHT22;59997;53.300;-6.260;2023-04-12T05:17:48;3.46;76.20
71942;DHT22;59997;53.300;-6.260;2023-04-12T05:20:13;3.55;75.60
71942;DHT22;59997;53.300;-6.260;2023-04-12T05:22:39;3.73;73.91
71942;DHT22;59997;53.300;-6.260;2023-04-12T05:25:05;3.70;74.31
71942;DHT22;59997;53.300;-6.260;2023-04-12T05:27:30;3.76;73.89
71942;DHT22;59997;53.300;-6.260;2023-04-12T05:29:56;3.75;73.67
71942;DHT22;59997;53.300;-6.260;2023-04-12T05:32:23;3.73;73.93
71942;DHT22;59997;53.300;-6.260;2023-04-12T05:34:49;3.94;72.62
71942;DHT22;59997;53.300;-6.260;2023-04-12T05:37:14;4.04;73.18
71942;DHT22;59997;53.300;-6.260;2023-04-12T05:39:40;4.14;72.66
71942;DHT22;59997;53.300;-6.260;2023-04-12T05:42:06;4.22;72.06
71942;DHT22;59997;53.300;-6.260;2023-04-12T05:44:34;4.21;73.26
71942;DHT22;59997;53.300;-6.260;2023-04-12T05:46:59;4.22;72.99
71942;DHT22;59997;53.300;-6.260;2023-04-12T05:49:28;4.35;72.47
71942;DHT22;59997;53.300;-6.260;2023-04-12T05:51:54;4.38;72.99
71942;DHT22;59997;53.300;-6.260;2023-04-12T05:54:20;4.52;72.38
71942;DHT22;59997;53.300;-6.260;2023-04-12T05:56:45;4.60;72.30
71942;DHT22;59997;53.300;-6.260;2023-04-12T05:59:11;4.67;72.17
71942;DHT22;59997;53.300;-6.260;2023-04-12T06:01:36;4.60;72.94
71942;DHT22;59997;53.300;-6.260;2023-04-12T06:04:06;4.57;72.86
71942;DHT22;59997;53.300;-6.260;2023-04-12T06:06:32;4.59;73.19
71942;DHT22;59997;53.300;-6.260;2023-04-12T06:08:58;4.56;74.58
71942;DHT22;59997;53.300;-6.260;2023-04-12T06:11:25;4.52;75.13
71942;DHT22;59997;53.300;-6.260;2023-04-12T06:13:51;4.46;76.15
71942;DHT22;59997;53.300;-6.260;2023-04-12T06:16:17;4.41;76.88
71942;DHT22;59997;53.300;-6.260;2023-04-12T06:18:42;4.42;77.67
71942;DHT22;59997;53.300;-6.260;2023-04-12T06:21:08;4.39;78.28
71942;DHT22;59997;53.300;-6.260;2023-04-12T06:23:33;4.31;79.11
71942;DHT22;59997;53.300;-6.260;2023-04-12T06:25:59;4.35;79.56
71942;DHT22;59997;53.300;-6.260;2023-04-12T06:28:24;4.32;80.64
71942;DHT22;59997;53.300;-6.260;2023-04-12T06:30:50;4.41;81.09
71942;DHT22;59997;53.300;-6.260;2023-04-12T06:33:15;4.34;81.05
71942;DHT22;59997;53.300;-6.260;2023-04-12T06:35:41;4.32;81.67
71942;DHT22;59997;53.300;-6.260;2023-04-12T06:38:06;4.31;81.72
71942;DHT22;59997;53.300;-6.260;2023-04-12T06:40:32;4.25;82.80
71942;DHT22;59997;53.300;-6.260;2023-04-12T06:42:57;4.04;83.29
71942;DHT22;59997;53.300;-6.260;2023-04-12T06:45:23;3.90;83.97
71942;DHT22;59997;53.300;-6.260;2023-04-12T06:47:48;3.76;84.49
71942;DHT22;59997;53.300;-6.260;2023-04-12T06:50:14;3.56;85.29
71942;DHT22;59997;53.300;-6.260;2023-04-12T06:52:40;3.45;85.42
71942;DHT22;59997;53.300;-6.260;2023-04-12T06:55:06;3.31;85.77
71942;DHT22;59997;53.300;-6.260;2023-04-12T06:57:32;3.07;86.02
71942;DHT22;59997;53.300;-6.260;2023-04-12T06:59:57;3.04;86.32
71942;DHT22;59997;53.300;-6.260;2023-04-12T07:02:22;3.02;86.27
71942;DHT22;59997;53.300;-6.260;2023-04-12T07:04:52;2.92;86.54
71942;DHT22;59997;53.300;-6.260;2023-04-12T07:07:18;2.92;86.62
71942;DHT22;59997;53.300;-6.260;2023-04-12T07:09:45;2.93;86.73
71942;DHT22;59997;53.300;-6.260;2023-04-12T07:12:11;2.86;86.82
71942;DHT22;59997;53.300;-6.260;2023-04-12T07:14:38;2.83;86.89
71942;DHT22;59997;53.300;-6.260;2023-04-12T07:17:03;2.89;86.98
71942;DHT22;59997;53.300;-6.260;2023-04-12T07:19:29;2.88;86.98
71942;DHT22;59997;53.300;-6.260;2023-04-12T07:21:55;2.85;86.92
71942;DHT22;59997;53.300;-6.260;2023-04-12T07:24:21;3.00;87.02
71942;DHT22;59997;53.300;-6.260;2023-04-12T07:26:46;3.10;86.84
71942;DHT22;59997;53.300;-6.260;2023-04-12T07:29:12;3.14;86.96
71942;DHT22;59997;53.300;-6.260;2023-04-12T07:31:37;3.27;86.99
71942;DHT22;59997;53.300;-6.260;2023-04-12T07:34:03;3.42;86.97
71942;DHT22;59997;53.300;-6.260;2023-04-12T07:36:28;3.51;86.80
71942;DHT22;59997;53.300;-6.260;2023-04-12T07:38:54;3.58;86.73
71942;DHT22;59997;53.300;-6.260;2023-04-12T07:41:20;3.65;86.65
71942;DHT22;59997;53.300;-6.260;2023-04-12T07:43:46;3.66;86.75
71942;DHT22;59997;53.300;-6.260;2023-04-12T07:46:12;3.63;86.81
71942;DHT22;59997;53.300;-6.260;2023-04-12T07:48:37;3.80;86.38
71942;DHT22;59997;53.300;-6.260;2023-04-12T07:51:03;3.79;86.16
71942;DHT22;59997;53.300;-6.260;2023-04-12T07:53:29;3.76;86.09
71942;DHT22;59997;53.300;-6.260;2023-04-12T07:55:55;3.72;86.25
71942;DHT22;59997;53.300;-6.260;2023-04-12T07:58:22;3.82;86.64
71942;DHT22;59997;53.300;-6.260;2023-04-12T08:00:48;4.07;85.76
71942;DHT22;59997;53.300;-6.260;2023-04-12T08:03:15;4.20;85.75
71942;DHT22;59997;53.300;-6.260;2023-04-12T08:05:42;4.34;85.65
71942;DHT22;59997;53.300;-6.260;2023-04-12T08:08:08;4.45;85.12
71942;DHT22;59997;53.300;-6.260;2023-04-12T08:10:35;4.63;85.22
71942;DHT22;59997;53.300;-6.260;2023-04-12T08:13:02;4.74;84.81
71942;DHT22;59997;53.300;-6.260;2023-04-12T08:15:27;4.79;84.48
71942;DHT22;59997;53.300;-6.260;2023-04-12T08:17:53;4.73;84.46
71942;DHT22;59997;53.300;-6.260;2023-04-12T08:20:18;4.76;84.04
71942;DHT22;59997;53.300;-6.260;2023-04-12T08:22:44;5.08;84.28
71942;DHT22;59997;53.300;-6.260;2023-04-12T08:25:10;5.39;84.06
71942;DHT22;59997;53.300;-6.260;2023-04-12T08:27:38;5.68;83.39
71942;DHT22;59997;53.300;-6.260;2023-04-12T08:30:04;6.16;83.00
71942;DHT22;59997;53.300;-6.260;2023-04-12T08:32:30;6.30;82.77
71942;DHT22;59997;53.300;-6.260;2023-04-12T08:34:55;5.98;81.69
71942;DHT22;59997;53.300;-6.260;2023-04-12T08:37:21;5.85;82.35
71942;DHT22;59997;53.300;-6.260;2023-04-12T08:39:46;5.66;82.44
71942;DHT22;59997;53.300;-6.260;2023-04-12T08:42:14;5.39;83.11
71942;DHT22;59997;53.300;-6.260;2023-04-12T08:44:40;5.54;83.55
71942;DHT22;59997;53.300;-6.260;2023-04-12T08:47:08;5.25;83.23
71942;DHT22;59997;53.300;-6.260;2023-04-12T08:49:34;4.92;84.12
71942;DHT22;59997;53.300;-6.260;2023-04-12T08:52:02;4.72;84.52
71942;DHT22;59997;53.300;-6.260;2023-04-12T08:54:30;4.73;85.23
71942;DHT22;59997;53.300;-6.260;2023-04-12T08:56:58;5.01;85.19
71942;DHT22;59997;53.300;-6.260;2023-04-12T08:59:26;5.22;84.64
71942;DHT22;59997;53.300;-6.260;2023-04-12T09:01:53;5.33;83.48
71942;DHT22;59997;53.300;-6.260;2023-04-12T09:04:19;5.47;83.42
71942;DHT22;59997;53.300;-6.260;2023-04-12T09:06:44;5.33;83.90
71942;DHT22;59997;53.300;-6.260;2023-04-12T09:09:10;5.39;84.56
71942;DHT22;59997;53.300;-6.260;2023-04-12T09:11:35;5.35;84.48
71942;DHT22;59997;53.300;-6.260;2023-04-12T09:14:01;5.31;84.43
71942;DHT22;59997;53.300;-6.260;2023-04-12T09:16:41;5.16;84.84
71942;DHT22;59997;53.300;-6.260;2023-04-12T09:19:07;5.15;84.83
71942;DHT22;59997;53.300;-6.260;2023-04-12T09:21:34;5.21;84.94
71942;DHT22;59997;53.300;-6.260;2023-04-12T09:24:07;5.29;84.61
71942;DHT22;59997;53.300;-6.260;2023-04-12T09:26:34;5.56;84.89
71942;DHT22;59997;53.300;-6.260;2023-04-12T09:29:00;5.53;84.15
71942;DHT22;59997;53.300;-6.260;2023-04-12T09:31:26;5.78;84.02
71942;DHT22;59997;53.300;-6.260;2023-04-12T09:33:51;6.25;83.25
71942;DHT22;59997;53.300;-6.260;2023-04-12T09:36:17;6.58;82.37
71942;DHT22;59997;53.300;-6.260;2023-04-12T09:38:59;8.07;80.24
71942;DHT22;59997;53.300;-6.260;2023-04-12T09:41:25;7.62;78.08
71942;DHT22;59997;53.300;-6.260;2023-04-12T09:43:53;7.13;78.87
71942;DHT22;59997;53.300;-6.260;2023-04-12T09:46:18;6.89;79.83
71942;DHT22;59997;53.300;-6.260;2023-04-12T09:48:51;6.44;80.48
71942;DHT22;59997;53.300;-6.260;2023-04-12T09:51:27;6.28;81.22
71942;DHT22;59997;53.300;-6.260;2023-04-12T09:54:03;6.37;81.35
71942;DHT22;59997;53.300;-6.260;2023-04-12T09:56:34;6.40;79.91
71942;DHT22;59997;53.300;-6.260;2023-04-12T09:59:04;6.53;79.26
71942;DHT22;59997;53.300;-6.260;2023-04-12T10:01:35;6.65;79.32
71942;DHT22;59997;53.300;-6.260;2023-04-12T10:04:06;6.57;78.08
71942;DHT22;59997;53.300;-6.260;2023-04-12T10:06:32;6.57;77.69
71942;DHT22;59997;53.300;-6.260;2023-04-12T10:09:00;6.81;77.91
71942;DHT22;59997;53.300;-6.260;2023-04-12T10:11:28;6.63;78.19
71942;DHT22;59997;53.300;-6.260;2023-04-12T10:13:55;6.61;78.71
71942;DHT22;59997;53.300;-6.260;2023-04-12T10:16:21;6.81;79.13
71942;DHT22;59997;53.300;-6.260;2023-04-12T10:18:47;6.78;77.72
71942;DHT22;59997;53.300;-6.260;2023-04-12T10:21:14;6.75;77.44
71942;DHT22;59997;53.300;-6.260;2023-04-12T10:23:43;6.88;77.40
71942;DHT22;59997;53.300;-6.260;2023-04-12T10:26:09;7.30;76.98
71942;DHT22;59997;53.300;-6.260;2023-04-12T10:28:35;7.83;74.30
71942;DHT22;59997;53.300;-6.260;2023-04-12T10:31:27;7.78;74.63
71942;DHT22;59997;53.300;-6.260;2023-04-12T10:33:54;7.58;75.25
71942;DHT22;59997;53.300;-6.260;2023-04-12T10:39:17;7.44;74.93
71942;DHT22;59997;53.300;-6.260;2023-04-12T10:42:22;7.33;74.60
71942;DHT22;59997;53.300;-6.260;2023-04-12T10:55:39;7.06;74.67
71942;DHT22;59997;53.300;-6.260;2023-04-12T10:58:09;7.33;74.98
71942;DHT22;59997;53.300;-6.260;2023-04-12T11:03:19;8.23;71.09
71942;DHT22;59997;53.300;-6.260;2023-04-12T11:06:02;8.30;71.02
71942;DHT22;59997;53.300;-6.260;2023-04-12T11:08:29;8.04;70.59
71942;DHT22;59997;53.300;-6.260;2023-04-12T11:11:02;7.78;71.58
71942;DHT22;59997;53.300;-6.260;2023-04-12T11:13:28;7.72;72.11
71942;DHT22;59997;53.300;-6.260;2023-04-12T11:15:55;7.58;72.74
71942;DHT22;59997;53.300;-6.260;2023-04-12T11:18:22;7.55;73.30
71942;DHT22;59997;53.300;-6.260;2023-04-12T11:20:47;7.89;73.59
71942;DHT22;59997;53.300;-6.260;2023-04-12T11:23:16;7.90;71.37
71942;DHT22;59997;53.300;-6.260;2023-04-12T11:25:42;8.13;70.78
71942;DHT22;59997;53.300;-6.260;2023-04-12T11:28:08;9.34;69.21
71942;DHT22;59997;53.300;-6.260;2023-04-12T11:30:33;9.28;66.95
71942;DHT22;59997;53.300;-6.260;2023-04-12T11:32:59;9.69;67.04
71942;DHT22;59997;53.300;-6.260;2023-04-12T11:35:27;9.93;65.26
71942;DHT22;59997;53.300;-6.260;2023-04-12T11:37:54;8.84;67.70
71942;DHT22;59997;53.300;-6.260;2023-04-12T11:40:21;8.20;69.44
71942;DHT22;59997;53.300;-6.260;2023-04-12T11:42:47;7.76;72.00
71942;DHT22;59997;53.300;-6.260;2023-04-12T11:45:18;7.85;73.44
71942;DHT22;59997;53.300;-6.260;2023-04-12T11:47:44;7.99;72.72
71942;DHT22;59997;53.300;-6.260;2023-04-12T11:50:10;8.27;71.29
71942;DHT22;59997;53.300;-6.260;2023-04-12T11:52:36;8.44;71.86
71942;DHT22;59997;53.300;-6.260;2023-04-12T11:55:03;8.31;70.50
71942;DHT22;59997;53.300;-6.260;2023-04-12T11:57:31;8.41;70.99
71942;DHT22;59997;53.300;-6.260;2023-04-12T11:59:57;8.28;70.79
71942;DHT22;59997;53.300;-6.260;2023-04-12T12:02:24;8.35;70.37
71942;DHT22;59997;53.300;-6.260;2023-04-12T12:04:50;8.04;71.05
71942;DHT22;59997;53.300;-6.260;2023-04-12T12:07:16;8.33;71.40
71942;DHT22;59997;53.300;-6.260;2023-04-12T12:09:43;8.46;71.67
71942;DHT22;59997;53.300;-6.260;2023-04-12T12:12:10;8.17;71.38
71942;DHT22;59997;53.300;-6.260;2023-04-12T12:14:35;8.07;71.70
71942;DHT22;59997;53.300;-6.260;2023-04-12T12:17:01;8.06;71.94
71942;DHT22;59997;53.300;-6.260;2023-04-12T12:19:35;8.06;71.56
71942;DHT22;59997;53.300;-6.260;2023-04-12T12:22:08;8.34;71.75
71942;DHT22;59997;53.300;-6.260;2023-04-12T12:24:34;8.66;70.24
71942;DHT22;59997;53.300;-6.260;2023-04-12T12:27:02;8.81;69.99
71942;DHT22;59997;53.300;-6.260;2023-04-12T12:29:35;8.83;70.00
71942;DHT22;59997;53.300;-6.260;2023-04-12T12:32:02;8.72;69.32
71942;DHT22;59997;53.300;-6.260;2023-04-12T12:34:33;8.26;69.94
71942;DHT22;59997;53.300;-6.260;2023-04-12T12:36:58;8.16;71.24
71942;DHT22;59997;53.300;-6.260;2023-04-12T12:39:24;8.10;71.61
71942;DHT22;59997;53.300;-6.260;2023-04-12T12:41:54;8.27;71.95
71942;DHT22;59997;53.300;-6.260;2023-04-12T12:44:23;8.52;70.67
71942;DHT22;59997;53.300;-6.260;2023-04-12T12:46:48;8.51;70.30
71942;DHT22;59997;53.300;-6.260;2023-04-12T12:49:14;8.65;71.11
71942;DHT22;59997;53.300;-6.260;2023-04-12T12:51:41;8.68;71.86
71942;DHT22;59997;53.300;-6.260;2023-04-12T12:54:07;9.03;71.43
71942;DHT22;59997;53.300;-6.260;2023-04-12T12:56:32;8.89;73.38
71942;DHT22;59997;53.300;-6.260;2023-04-12T12:58:59;8.28;73.49
71942;DHT22;59997;53.300;-6.260;2023-04-12T13:01:25;7.94;74.68
71942;DHT22;59997;53.300;-6.260;2023-04-12T13:03:51;7.76;75.85
71942;DHT22;59997;53.300;-6.260;2023-04-12T13:06:17;7.71;77.22
71942;DHT22;59997;53.300;-6.260;2023-04-12T13:08:43;7.65;78.24
71942;DHT22;59997;53.300;-6.260;2023-04-12T13:11:08;7.78;78.81
71942;DHT22;59997;53.300;-6.260;2023-04-12T13:13:34;7.67;78.89
71942;DHT22;59997;53.300;-6.260;2023-04-12T13:15:59;7.24;79.74
71942;DHT22;59997;53.300;-6.260;2023-04-12T13:18:25;7.12;80.52
71942;DHT22;59997;53.300;-6.260;2023-04-12T13:20:51;6.88;81.10
71942;DHT22;59997;53.300;-6.260;2023-04-12T13:23:16;6.84;82.39
71942;DHT22;59997;53.300;-6.260;2023-04-12T13:25:42;6.77;82.78
71942;DHT22;59997;53.300;-6.260;2023-04-12T13:28:07;6.58;82.22
71942;DHT22;59997;53.300;-6.260;2023-04-12T13:30:33;6.48;83.02
71942;DHT22;59997;53.300;-6.260;2023-04-12T13:32:58;6.50;83.23
71942;DHT22;59997;53.300;-6.260;2023-04-12T13:35:23;6.13;83.00
71942;DHT22;59997;53.300;-6.260;2023-04-12T13:37:49;6.11;84.01
71942;DHT22;59997;53.300;-6.260;2023-04-12T13:40:14;6.13;84.12
71942;DHT22;59997;53.300;-6.260;2023-04-12T13:42:40;6.29;85.25
71942;DHT22;59997;53.300;-6.260;2023-04-12T13:45:06;6.18;84.32
71942;DHT22;59997;53.300;-6.260;2023-04-12T13:47:32;5.84;84.03
71942;DHT22;59997;53.300;-6.260;2023-04-12T13:49:59;5.71;84.96
71942;DHT22;59997;53.300;-6.260;2023-04-12T13:52:25;5.77;85.06
71942;DHT22;59997;53.300;-6.260;2023-04-12T13:54:51;5.81;85.29
71942;DHT22;59997;53.300;-6.260;2023-04-12T13:57:16;5.63;85.18
71942;DHT22;59997;53.300;-6.260;2023-04-12T13:59:42;5.66;85.24
71942;DHT22;59997;53.300;-6.260;2023-04-12T14:02:07;5.61;85.50
71942;DHT22;59997;53.300;-6.260;2023-04-12T14:04:33;5.57;85.71
71942;DHT22;59997;53.300;-6.260;2023-04-12T14:06:58;5.53;85.80
71942;DHT22;59997;53.300;-6.260;2023-04-12T14:09:25;5.60;86.06
71942;DHT22;59997;53.300;-6.260;2023-04-12T14:11:52;5.57;85.94
71942;DHT22;59997;53.300;-6.260;2023-04-12T14:14:22;5.56;86.00
71942;DHT22;59997;53.300;-6.260;2023-04-12T14:16:52;5.57;86.07
71942;DHT22;59997;53.300;-6.260;2023-04-12T14:19:22;5.61;86.05
71942;DHT22;59997;53.300;-6.260;2023-04-12T14:21:47;5.64;86.24
71942;DHT22;59997;53.300;-6.260;2023-04-12T14:24:14;5.67;86.37
71942;DHT22;59997;53.300;-6.260;2023-04-12T14:26:40;5.74;86.48
71942;DHT22;59997;53.300;-6.260;2023-04-12T14:29:06;5.81;86.60
71942;DHT22;59997;53.300;-6.260;2023-04-12T14:31:33;5.85;86.56
71942;DHT22;59997;53.300;-6.260;2023-04-12T14:33:58;5.95;86.93
71942;DHT22;59997;53.300;-6.260;2023-04-12T14:36:24;6.02;86.92
71942;DHT22;59997;53.300;-6.260;2023-04-12T14:38:51;6.05;86.92
71942;DHT22;59997;53.300;-6.260;2023-04-12T14:41:17;6.19;87.06
71942;DHT22;59997;53.300;-6.260;2023-04-12T14:43:43;6.25;87.05
71942;DHT22;59997;53.300;-6.260;2023-04-12T14:46:10;6.36;87.04
71942;DHT22;59997;53.300;-6.260;2023-04-12T14:48:36;6.44;87.19
71942;DHT22;59997;53.300;-6.260;2023-04-12T14:51:01;6.63;87.21
71942;DHT22;59997;53.300;-6.260;2023-04-12T14:53:28;6.58;87.14
71942;DHT22;59997;53.300;-6.260;2023-04-12T14:55:53;6.61;87.03
71942;DHT22;59997;53.300;-6.260;2023-04-12T14:58:19;6.67;86.43
71942;DHT22;59997;53.300;-6.260;2023-04-12T15:00:44;6.70;86.35
71942;DHT22;59997;53.300;-6.260;2023-04-12T15:03:10;6.77;85.92
71942;DHT22;59997;53.300;-6.260;2023-04-12T15:05:35;6.87;85.55
71942;DHT22;59997;53.300;-6.260;2023-04-12T15:08:01;6.85;85.56
71942;DHT22;59997;53.300;-6.260;2023-04-12T15:10:26;6.92;85.85
71942;DHT22;59997;53.300;-6.260;2023-04-12T15:12:52;6.92;85.37
71942;DHT22;59997;53.300;-6.260;2023-04-12T15:15:18;6.85;85.54
71942;DHT22;59997;53.300;-6.260;2023-04-12T15:17:44;6.87;85.54
71942;DHT22;59997;53.300;-6.260;2023-04-12T15:20:10;6.77;85.81
71942;DHT22;59997;53.300;-6.260;2023-04-12T15:22:38;6.72;85.53
71942;DHT22;59997;53.300;-6.260;2023-04-12T15:25:04;6.75;85.42
71942;DHT22;59997;53.300;-6.260;2023-04-12T15:27:31;6.75;85.70
71942;DHT22;59997;53.300;-6.260;2023-04-12T15:29:57;6.68;85.57
71942;DHT22;59997;53.300;-6.260;2023-04-12T15:32:25;6.60;85.82
71942;DHT22;59997;53.300;-6.260;2023-04-12T15:34:50;6.57;86.33
71942;DHT22;59997;53.300;-6.260;2023-04-12T15:37:16;6.54;86.35
71942;DHT22;59997;53.300;-6.260;2023-04-12T15:39:41;6.54;85.92
71942;DHT22;59997;53.300;-6.260;2023-04-12T15:42:07;6.55;86.14
71942;DHT22;59997;53.300;-6.260;2023-04-12T15:44:32;6.51;86.34
71942;DHT22;59997;53.300;-6.260;2023-04-12T15:46:58;6.51;86.52
71942;DHT22;59997;53.300;-6.260;2023-04-12T15:49:24;6.48;86.26
71942;DHT22;59997;53.300;-6.260;2023-04-12T15:51:50;6.46;86.26
71942;DHT22;59997;53.300;-6.260;2023-04-12T15:54:17;6.44;86.06
71942;DHT22;59997;53.300;-6.260;2023-04-12T15:56:43;6.48;86.16